sensor_id;sensor_type;location;lat;lon;timestamp;P1;durP1;ratioP1;P2;durP2;ratioP2
36501;SDS011;25393;46.108;3.390;2023-03-03T00:00:54;49.73;;;21.83;;
36501;SDS011;25393;46.108;3.390;2023-03-03T00:03:24;54.63;;;22.33;;
36501;SDS011;25393;46.108;3.390;2023-03-03T00:05:52;52.13;;;21.77;;
36501;SDS011;25393;46.108;3.390;2023-03-03T00:08:19;47.93;;;21.23;;
36501;SDS011;25393;46.108;3.390;2023-03-03T00:10:48;52.57;;;22.40;;
36501;SDS011;25393;46.108;3.390;2023-03-03T00:13:16;52.70;;;23.30;;
36501;SDS011;25393;46.108;3.390;2023-03-03T00:15:45;48.73;;;21.50;;
36501;SDS011;25393;46.108;3.390;2023-03-03T00:18:28;55.83;;;23.23;;
36501;SDS011;25393;46.108;3.390;2023-03-03T00:20:59;51.03;;;21.67;;
36501;SDS011;25393;46.108;3.390;2023-03-03T00:23:39;48.13;;;22.97;;
36501;SDS011;25393;46.108;3.390;2023-03-03T00:26:20;50.13;;;22.17;;
36501;SDS011;25393;46.108;3.390;2023-03-03T00:28:52;51.70;;;22.57;;
36501;SDS011;25393;46.108;3.390;2023-03-03T00:31:21;56.03;;;21.97;;
36501;SDS011;25393;46.108;3.390;2023-03-03T00:33:54;47.93;;;21.40;;
36501;SDS011;25393;46.108;3.390;2023-03-03T00:36:37;52.27;;;23.13;;
36501;SDS011;25393;46.108;3.390;2023-03-03T00:39:18;51.80;;;22.10;;
36501;SDS011;25393;46.108;3.390;2023-03-03T00:41:52;59.73;;;22.17;;
36501;SDS011;25393;46.108;3.390;2023-03-03T00:47:26;55.97;;;24.00;;
36501;SDS011;25393;46.108;3.390;2023-03-03T00:52:38;47.50;;;21.27;;
36501;SDS011;25393;46.108;3.390;2023-03-03T00:55:06;51.47;;;22.50;;
36501;SDS011;25393;46.108;3.390;2023-03-03T00:57:33;50.20;;;22.83;;
36501;SDS011;25393;46.108;3.390;2023-03-03T01:00:00;54.53;;;23.50;;
36501;SDS011;25393;46.108;3.390;2023-03-03T01:02:26;55.20;;;22.67;;
36501;SDS011;25393;46.108;3.390;2023-03-03T01:04:53;51.43;;;20.53;;
36501;SDS011;25393;46.108;3.390;2023-03-03T01:07:22;48.63;;;19.80;;
36501;SDS011;25393;46.108;3.390;2023-03-03T01:09:51;61.60;;;24.73;;
36501;SDS011;25393;46.108;3.390;2023-03-03T01:12:17;53.77;;;23.73;;
36501;SDS011;25393;46.108;3.390;2023-03-03T01:14:44;54.10;;;22.57;;
36501;SDS011;25393;46.108;3.390;2023-03-03T01:17:11;52.43;;;23.37;;
36501;SDS011;25393;46.108;3.390;2023-03-03T01:19:37;49.07;;;21.17;;
36501;SDS011;25393;46.108;3.390;2023-03-03T01:22:04;49.33;;;22.93;;
36501;SDS011;25393;46.108;3.390;2023-03-03T01:24:30;48.47;;;23.33;;
36501;SDS011;25393;46.108;3.390;2023-03-03T01:26:57;52.83;;;22.97;;
36501;SDS011;25393;46.108;3.390;2023-03-03T01:29:23;53.27;;;22.90;;
36501;SDS011;25393;46.108;3.390;2023-03-03T01:31:52;59.07;;;24.77;;
36501;SDS011;25393;46.108;3.390;2023-03-03T01:34:19;55.63;;;22.57;;
36501;SDS011;25393;46.108;3.390;2023-03-03T01:36:45;53.93;;;23.17;;
36501;SDS011;25393;46.108;3.390;2023-03-03T01:39:12;55.37;;;22.63;;
36501;SDS011;25393;46.108;3.390;2023-03-03T01:41:39;60.00;;;24.53;;
36501;SDS011;25393;46.108;3.390;2023-03-03T01:44:05;55.20;;;23.50;;
36501;SDS011;25393;46.108;3.390;2023-03-03T01:46:33;56.20;;;24.33;;
36501;SDS011;25393;46.108;3.390;2023-03-03T01:49:12;58.27;;;24.23;;
36501;SDS011;25393;46.108;3.390;2023-03-03T01:51:43;55.33;;;23.27;;
36501;SDS011;25393;46.108;3.390;2023-03-03T01:54:16;62.20;;;23.80;;
36501;SDS011;25393;46.108;3.390;2023-03-03T01:56:46;59.33;;;24.20;;
36501;SDS011;25393;46.108;3.390;2023-03-03T01:59:24;60.77;;;27.10;;
36501;SDS011;25393;46.108;3.390;2023-03-03T02:01:54;56.40;;;23.73;;
36501;SDS011;25393;46.108;3.390;2023-03-03T02:04:21;54.63;;;24.20;;
36501;SDS011;25393;46.108;3.390;2023-03-03T02:06:55;52.20;;;22.47;;
36501;SDS011;25393;46.108;3.390;2023-03-03T02:12:18;49.83;;;21.60;;
36501;SDS011;25393;46.108;3.390;2023-03-03T02:14:49;54.57;;;22.87;;
36501;SDS011;25393;46.108;3.390;2023-03-03T02:17:16;48.30;;;22.00;;
36501;SDS011;25393;46.108;3.390;2023-03-03T02:19:46;56.27;;;23.53;;
36501;SDS011;25393;46.108;3.390;2023-03-03T02:22:36;57.57;;;24.20;;
36501;SDS011;25393;46.108;3.390;2023-03-03T02:25:14;50.63;;;22.47;;
36501;SDS011;25393;46.108;3.390;2023-03-03T02:27:49;62.80;;;24.70;;
36501;SDS011;25393;46.108;3.390;2023-03-03T02:30:18;54.93;;;23.27;;
36501;SDS011;25393;46.108;3.390;2023-03-03T02:32:46;54.63;;;24.93;;
36501;SDS011;25393;46.108;3.390;2023-03-03T02:37:55;58.93;;;24.00;;
36501;SDS011;25393;46.108;3.390;2023-03-03T02:40:35;58.53;;;25.90;;
36501;SDS011;25393;46.108;3.390;2023-03-03T02:43:05;53.93;;;23.97;;
36501;SDS011;25393;46.108;3.390;2023-03-03T02:45:33;60.07;;;25.93;;
36501;SDS011;25393;46.108;3.390;2023-03-03T02:48:03;63.23;;;25.07;;
36501;SDS011;25393;46.108;3.390;2023-03-03T02:50:32;60.27;;;25.73;;
36501;SDS011;25393;46.108;3.390;2023-03-03T02:52:59;61.60;;;26.20;;
36501;SDS011;25393;46.108;3.390;2023-03-03T02:55:28;58.43;;;25.07;;
36501;SDS011;25393;46.108;3.390;2023-03-03T02:57:57;53.83;;;24.13;;
36501;SDS011;25393;46.108;3.390;2023-03-03T03:00:23;63.80;;;25.43;;
36501;SDS011;25393;46.108;3.390;2023-03-03T03:02:50;49.53;;;22.70;;
36501;SDS011;25393;46.108;3.390;2023-03-03T03:05:16;60.40;;;25.63;;
36501;SDS011;25393;46.108;3.390;2023-03-03T03:07:43;68.77;;;24.73;;
36501;SDS011;25393;46.108;3.390;2023-03-03T03:10:09;61.60;;;25.97;;
36501;SDS011;25393;46.108;3.390;2023-03-03T03:12:36;53.77;;;23.87;;
36501;SDS011;25393;46.108;3.390;2023-03-03T03:15:03;61.03;;;25.87;;
36501;SDS011;25393;46.108;3.390;2023-03-03T03:17:30;60.83;;;23.37;;
36501;SDS011;25393;46.108;3.390;2023-03-03T03:19:58;57.97;;;23.27;;
36501;SDS011;25393;46.108;3.390;2023-03-03T03:22:25;58.10;;;24.40;;
36501;SDS011;25393;46.108;3.390;2023-03-03T03:24:51;59.03;;;24.80;;
36501;SDS011;25393;46.108;3.390;2023-03-03T03:27:18;54.93;;;22.77;;
36501;SDS011;25393;46.108;3.390;2023-03-03T03:29:45;58.93;;;25.80;;
36501;SDS011;25393;46.108;3.390;2023-03-03T03:32:11;55.60;;;24.07;;
36501;SDS011;25393;46.108;3.390;2023-03-03T03:34:38;48.13;;;21.80;;
36501;SDS011;25393;46.108;3.390;2023-03-03T03:37:04;57.63;;;24.10;;
36501;SDS011;25393;46.108;3.390;2023-03-03T03:39:31;57.60;;;24.07;;
36501;SDS011;25393;46.108;3.390;2023-03-03T03:42:05;57.53;;;23.13;;
36501;SDS011;25393;46.108;3.390;2023-03-03T03:44:34;57.87;;;24.33;;
36501;SDS011;25393;46.108;3.390;2023-03-03T03:47:01;52.00;;;23.30;;
36501;SDS011;25393;46.108;3.390;2023-03-03T03:49:29;62.53;;;24.53;;
36501;SDS011;25393;46.108;3.390;2023-03-03T03:51:56;54.57;;;23.53;;
36501;SDS011;25393;46.108;3.390;2023-03-03T03:54:22;51.93;;;23.10;;
36501;SDS011;25393;46.108;3.390;2023-03-03T03:56:49;64.87;;;24.53;;
36501;SDS011;25393;46.108;3.390;2023-03-03T03:59:15;51.33;;;24.40;;
36501;SDS011;25393;46.108;3.390;2023-03-03T04:01:42;56.43;;;24.37;;
36501;SDS011;25393;46.108;3.390;2023-03-03T04:04:08;54.07;;;23.53;;
36501;SDS011;25393;46.108;3.390;2023-03-03T04:06:35;56.43;;;22.93;;
36501;SDS011;25393;46.108;3.390;2023-03-03T04:09:02;55.67;;;22.73;;
36501;SDS011;25393;46.108;3.390;2023-03-03T04:11:30;58.83;;;24.13;;
36501;SDS011;25393;46.108;3.390;2023-03-03T04:13:57;54.27;;;23.40;;
36501;SDS011;25393;46.108;3.390;2023-03-03T04:16:23;56.43;;;23.97;;
36501;SDS011;25393;46.108;3.390;2023-03-03T04:18:50;56.83;;;25.17;;
36501;SDS011;25393;46.108;3.390;2023-03-03T04:21:16;56.53;;;24.27;;
36501;SDS011;25393;46.108;3.390;2023-03-03T04:23:43;53.23;;;23.57;;
36501;SDS011;25393;46.108;3.390;2023-03-03T04:26:10;56.40;;;24.27;;
36501;SDS011;25393;46.108;3.390;2023-03-03T04:28:39;56.27;;;23.77;;
36501;SDS011;25393;46.108;3.390;2023-03-03T04:31:09;56.23;;;24.10;;
36501;SDS011;25393;46.108;3.390;2023-03-03T04:33:36;58.00;;;25.20;;
36501;SDS011;25393;46.108;3.390;2023-03-03T04:36:03;57.33;;;23.50;;
36501;SDS011;25393;46.108;3.390;2023-03-03T04:38:37;54.30;;;23.27;;
36501;SDS011;25393;46.108;3.390;2023-03-03T04:41:03;54.27;;;23.17;;
36501;SDS011;25393;46.108;3.390;2023-03-03T04:43:30;53.77;;;21.77;;
36501;SDS011;25393;46.108;3.390;2023-03-03T04:45:57;50.20;;;22.17;;
36501;SDS011;25393;46.108;3.390;2023-03-03T04:48:23;55.63;;;23.33;;
36501;SDS011;25393;46.108;3.390;2023-03-03T04:50:50;49.07;;;21.50;;
36501;SDS011;25393;46.108;3.390;2023-03-03T04:53:16;48.77;;;22.57;;
36501;SDS011;25393;46.108;3.390;2023-03-03T04:55:43;60.73;;;24.77;;
36501;SDS011;25393;46.108;3.390;2023-03-03T04:58:10;56.37;;;24.83;;
36501;SDS011;25393;46.108;3.390;2023-03-03T05:00:39;58.37;;;23.30;;
36501;SDS011;25393;46.108;3.390;2023-03-03T05:03:06;52.57;;;22.50;;
36501;SDS011;25393;46.108;3.390;2023-03-03T05:05:39;55.77;;;23.63;;
36501;SDS011;25393;46.108;3.390;2023-03-03T05:08:06;44.37;;;20.97;;
36501;SDS011;25393;46.108;3.390;2023-03-03T05:10:35;53.63;;;20.87;;
36501;SDS011;25393;46.108;3.390;2023-03-03T05:13:05;52.90;;;23.23;;
36501;SDS011;25393;46.108;3.390;2023-03-03T05:15:36;56.83;;;22.27;;
36501;SDS011;25393;46.108;3.390;2023-03-03T05:18:08;55.30;;;22.73;;
36501;SDS011;25393;46.108;3.390;2023-03-03T05:20:41;55.47;;;23.83;;
36501;SDS011;25393;46.108;3.390;2023-03-03T05:23:10;57.10;;;24.87;;
36501;SDS011;25393;46.108;3.390;2023-03-03T05:25:38;55.70;;;23.03;;
36501;SDS011;25393;46.108;3.390;2023-03-03T05:28:08;57.07;;;23.63;;
36501;SDS011;25393;46.108;3.390;2023-03-03T05:30:40;47.63;;;20.43;;
36501;SDS011;25393;46.108;3.390;2023-03-03T05:33:07;55.23;;;24.10;;
36501;SDS011;25393;46.108;3.390;2023-03-03T05:35:41;52.87;;;21.73;;
36501;SDS011;25393;46.108;3.390;2023-03-03T05:38:10;54.30;;;22.60;;
36501;SDS011;25393;46.108;3.390;2023-03-03T05:40:40;53.20;;;22.37;;
36501;SDS011;25393;46.108;3.390;2023-03-03T05:43:06;59.97;;;22.97;;
36501;SDS011;25393;46.108;3.390;2023-03-03T05:45:36;58.00;;;22.07;;
36501;SDS011;25393;46.108;3.390;2023-03-03T05:48:05;56.43;;;22.80;;
36501;SDS011;25393;46.108;3.390;2023-03-03T05:50:31;57.80;;;22.93;;
36501;SDS011;25393;46.108;3.390;2023-03-03T05:52:58;64.90;;;25.63;;
36501;SDS011;25393;46.108;3.390;2023-03-03T05:55:25;56.60;;;23.60;;
36501;SDS011;25393;46.108;3.390;2023-03-03T05:57:51;61.73;;;25.43;;
36501;SDS011;25393;46.108;3.390;2023-03-03T06:00:18;55.30;;;24.13;;
36501;SDS011;25393;46.108;3.390;2023-03-03T06:02:45;55.73;;;24.00;;
36501;SDS011;25393;46.108;3.390;2023-03-03T06:05:11;57.20;;;24.37;;
36501;SDS011;25393;46.108;3.390;2023-03-03T06:07:38;61.80;;;25.67;;
36501;SDS011;25393;46.108;3.390;2023-03-03T06:10:11;62.57;;;25.00;;
36501;SDS011;25393;46.108;3.390;2023-03-03T06:12:40;67.03;;;27.17;;
36501;SDS011;25393;46.108;3.390;2023-03-03T06:15:10;71.47;;;28.57;;
36501;SDS011;25393;46.108;3.390;2023-03-03T06:17:40;54.77;;;23.80;;
36501;SDS011;25393;46.108;3.390;2023-03-03T06:20:10;78.60;;;30.20;;
36501;SDS011;25393;46.108;3.390;2023-03-03T06:22:37;70.43;;;28.87;;
36501;SDS011;25393;46.108;3.390;2023-03-03T06:25:06;62.87;;;25.93;;
36501;SDS011;25393;46.108;3.390;2023-03-03T06:27:34;71.63;;;27.90;;
36501;SDS011;25393;46.108;3.390;2023-03-03T06:30:00;67.47;;;25.93;;
36501;SDS011;25393;46.108;3.390;2023-03-03T06:32:27;74.03;;;28.20;;
36501;SDS011;25393;46.108;3.390;2023-03-03T06:34:54;61.77;;;25.47;;
36501;SDS011;25393;46.108;3.390;2023-03-03T06:37:20;67.43;;;27.13;;
36501;SDS011;25393;46.108;3.390;2023-03-03T06:39:47;74.23;;;27.17;;
36501;SDS011;25393;46.108;3.390;2023-03-03T06:42:13;72.30;;;29.43;;
36501;SDS011;25393;46.108;3.390;2023-03-03T06:44:40;61.87;;;26.33;;
36501;SDS011;25393;46.108;3.390;2023-03-03T06:47:06;62.47;;;27.00;;
36501;SDS011;25393;46.108;3.390;2023-03-03T06:49:35;72.10;;;28.27;;
36501;SDS011;25393;46.108;3.390;2023-03-03T06:52:04;71.70;;;27.83;;
36501;SDS011;25393;46.108;3.390;2023-03-03T06:54:39;65.60;;;26.97;;
36501;SDS011;25393;46.108;3.390;2023-03-03T06:57:14;60.93;;;25.30;;
36501;SDS011;25393;46.108;3.390;2023-03-03T06:59:51;59.73;;;26.17;;
36501;SDS011;25393;46.108;3.390;2023-03-03T07:02:20;62.27;;;25.17;;
36501;SDS011;25393;46.108;3.390;2023-03-03T07:04:47;61.07;;;26.10;;
36501;SDS011;25393;46.108;3.390;2023-03-03T07:07:15;66.27;;;25.47;;
36501;SDS011;25393;46.108;3.390;2023-03-03T07:09:53;62.33;;;26.43;;
36501;SDS011;25393;46.108;3.390;2023-03-03T07:12:22;60.77;;;25.63;;
36501;SDS011;25393;46.108;3.390;2023-03-03T07:14:52;58.60;;;25.87;;
36501;SDS011;25393;46.108;3.390;2023-03-03T07:17:25;64.20;;;26.40;;
36501;SDS011;25393;46.108;3.390;2023-03-03T07:19:51;61.23;;;26.50;;
36501;SDS011;25393;46.108;3.390;2023-03-03T07:22:20;67.33;;;27.93;;
36501;SDS011;25393;46.108;3.390;2023-03-03T07:24:53;65.03;;;25.70;;
36501;SDS011;25393;46.108;3.390;2023-03-03T07:29:53;67.83;;;26.67;;
36501;SDS011;25393;46.108;3.390;2023-03-03T07:32:42;63.00;;;24.97;;
36501;SDS011;25393;46.108;3.390;2023-03-03T07:35:34;65.90;;;30.17;;
36501;SDS011;25393;46.108;3.390;2023-03-03T07:38:16;58.93;;;25.87;;
36501;SDS011;25393;46.108;3.390;2023-03-03T07:40:53;65.30;;;27.03;;
36501;SDS011;25393;46.108;3.390;2023-03-03T07:46:28;72.57;;;28.17;;
36501;SDS011;25393;46.108;3.390;2023-03-03T07:49:01;71.60;;;30.83;;
36501;SDS011;25393;46.108;3.390;2023-03-03T07:51:55;72.27;;;29.00;;
36501;SDS011;25393;46.108;3.390;2023-03-03T07:54:37;80.70;;;31.23;;
36501;SDS011;25393;46.108;3.390;2023-03-03T07:57:25;81.87;;;31.67;;
36501;SDS011;25393;46.108;3.390;2023-03-03T08:00:01;71.33;;;29.50;;
36501;SDS011;25393;46.108;3.390;2023-03-03T08:02:43;76.33;;;27.10;;
36501;SDS011;25393;46.108;3.390;2023-03-03T08:05:35;70.50;;;26.90;;
36501;SDS011;25393;46.108;3.390;2023-03-03T08:13:21;64.17;;;27.93;;
36501;SDS011;25393;46.108;3.390;2023-03-03T08:18:29;61.30;;;26.60;;
36501;SDS011;25393;46.108;3.390;2023-03-03T08:23:41;64.67;;;27.53;;
36501;SDS011;25393;46.108;3.390;2023-03-03T08:26:08;68.97;;;28.73;;
36501;SDS011;25393;46.108;3.390;2023-03-03T08:28:42;67.23;;;26.93;;
36501;SDS011;25393;46.108;3.390;2023-03-03T08:31:11;61.83;;;26.63;;
36501;SDS011;25393;46.108;3.390;2023-03-03T08:33:53;68.73;;;28.50;;
36501;SDS011;25393;46.108;3.390;2023-03-03T08:36:19;61.97;;;26.17;;
36501;SDS011;25393;46.108;3.390;2023-03-03T08:38:46;75.97;;;29.23;;
36501;SDS011;25393;46.108;3.390;2023-03-03T08:41:13;60.37;;;26.57;;
36501;SDS011;25393;46.108;3.390;2023-03-03T08:43:39;61.13;;;27.50;;
36501;SDS011;25393;46.108;3.390;2023-03-03T08:46:06;65.23;;;28.23;;
36501;SDS011;25393;46.108;3.390;2023-03-03T08:48:35;68.03;;;27.30;;
36501;SDS011;25393;46.108;3.390;2023-03-03T08:51:04;63.53;;;27.93;;
36501;SDS011;25393;46.108;3.390;2023-03-03T08:53:31;66.07;;;29.03;;
36501;SDS011;25393;46.108;3.390;2023-03-03T08:56:01;60.47;;;27.77;;
36501;SDS011;25393;46.108;3.390;2023-03-03T08:58:28;67.00;;;27.37;;
36501;SDS011;25393;46.108;3.390;2023-03-03T09:01:01;64.57;;;29.30;;
36501;SDS011;25393;46.108;3.390;2023-03-03T09:03:28;68.53;;;28.87;;
36501;SDS011;25393;46.108;3.390;2023-03-03T09:05:55;72.90;;;26.83;;
36501;SDS011;25393;46.108;3.390;2023-03-03T09:08:22;64.67;;;28.03;;
36501;SDS011;25393;46.108;3.390;2023-03-03T09:10:48;65.23;;;27.43;;
36501;SDS011;25393;46.108;3.390;2023-03-03T09:13:17;62.50;;;27.37;;
36501;SDS011;25393;46.108;3.390;2023-03-03T09:15:46;64.27;;;27.90;;
36501;SDS011;25393;46.108;3.390;2023-03-03T09:18:21;69.50;;;29.33;;
36501;SDS011;25393;46.108;3.390;2023-03-03T09:20:53;72.07;;;29.00;;
36501;SDS011;25393;46.108;3.390;2023-03-03T09:25:49;62.90;;;27.43;;
36501;SDS011;25393;46.108;3.390;2023-03-03T09:28:27;57.57;;;26.30;;
36501;SDS011;25393;46.108;3.390;2023-03-03T09:30:57;66.87;;;27.70;;
36501;SDS011;25393;46.108;3.390;2023-03-03T09:33:26;56.33;;;24.97;;
36501;SDS011;25393;46.108;3.390;2023-03-03T09:38:44;55.10;;;25.58;;
36501;SDS011;25393;46.108;3.390;2023-03-03T09:46:45;76.88;;;28.00;;
36501;SDS011;25393;46.108;3.390;2023-03-03T09:54:49;60.17;;;26.10;;
36501;SDS011;25393;46.108;3.390;2023-03-03T10:03:17;70.23;;;27.10;;
36501;SDS011;25393;46.108;3.390;2023-03-03T10:11:48;52.92;;;24.77;;
36501;SDS011;25393;46.108;3.390;2023-03-03T10:19:56;50.50;;;23.60;;
36501;SDS011;25393;46.108;3.390;2023-03-03T10:22:47;51.90;;;22.98;;
36501;SDS011;25393;46.108;3.390;2023-03-03T10:25:34;57.13;;;24.88;;
36501;SDS011;25393;46.108;3.390;2023-03-03T10:52:45;53.65;;;24.48;;
36501;SDS011;25393;46.108;3.390;2023-03-03T11:06:42;48.70;;;22.35;;
36501;SDS011;25393;46.108;3.390;2023-03-03T11:09:27;46.22;;;20.88;;
36501;SDS011;25393;46.108;3.390;2023-03-03T11:12:17;50.20;;;21.60;;
36501;SDS011;25393;46.108;3.390;2023-03-03T11:21:16;47.72;;;23.20;;
36501;SDS011;25393;46.108;3.390;2023-03-03T11:37:51;48.10;;;20.17;;
36501;SDS011;25393;46.108;3.390;2023-03-03T11:40:25;43.92;;;20.50;;
36501;SDS011;25393;46.108;3.390;2023-03-03T11:46:10;45.28;;;21.85;;
36501;SDS011;25393;46.108;3.390;2023-03-03T11:48:52;45.47;;;21.23;;
36501;SDS011;25393;46.108;3.390;2023-03-03T11:51:52;44.85;;;20.17;;
36501;SDS011;25393;46.108;3.390;2023-03-03T11:54:36;44.30;;;18.88;;
36501;SDS011;25393;46.108;3.390;2023-03-03T11:57:55;40.22;;;17.52;;
36501;SDS011;25393;46.108;3.390;2023-03-03T12:14:26;41.85;;;17.60;;
36501;SDS011;25393;46.108;3.390;2023-03-03T12:16:59;37.63;;;17.02;;
36501;SDS011;25393;46.108;3.390;2023-03-03T12:22:25;38.60;;;17.98;;
36501;SDS011;25393;46.108;3.390;2023-03-03T12:27:57;39.88;;;17.90;;
36501;SDS011;25393;46.108;3.390;2023-03-03T12:33:41;39.40;;;17.35;;
36501;SDS011;25393;46.108;3.390;2023-03-03T12:36:24;36.65;;;16.90;;
36501;SDS011;25393;46.108;3.390;2023-03-03T12:48:16;40.78;;;16.88;;
36501;SDS011;25393;46.108;3.390;2023-03-03T12:51:05;34.95;;;15.73;;
36501;SDS011;25393;46.108;3.390;2023-03-03T12:54:03;35.60;;;16.17;;
36501;SDS011;25393;46.108;3.390;2023-03-03T13:10:48;34.80;;;15.90;;
36501;SDS011;25393;46.108;3.390;2023-03-03T13:16:02;36.33;;;15.77;;
36501;SDS011;25393;46.108;3.390;2023-03-03T13:21:25;36.15;;;15.68;;
36501;SDS011;25393;46.108;3.390;2023-03-03T13:29:55;37.38;;;16.65;;
36501;SDS011;25393;46.108;3.390;2023-03-03T13:32:27;35.75;;;15.68;;
36501;SDS011;25393;46.108;3.390;2023-03-03T13:35:18;35.78;;;16.83;;
36501;SDS011;25393;46.108;3.390;2023-03-03T13:38:09;35.20;;;16.33;;
36501;SDS011;25393;46.108;3.390;2023-03-03T13:59:11;37.88;;;17.92;;
36501;SDS011;25393;46.108;3.390;2023-03-03T14:04:30;37.05;;;17.85;;
36501;SDS011;25393;46.108;3.390;2023-03-03T14:07:09;39.60;;;16.42;;
36501;SDS011;25393;46.108;3.390;2023-03-03T14:22:51;44.97;;;19.40;;
36501;SDS011;25393;46.108;3.390;2023-03-03T14:25:20;38.63;;;18.02;;
36501;SDS011;25393;46.108;3.390;2023-03-03T14:32:57;43.88;;;18.05;;
36501;SDS011;25393;46.108;3.390;2023-03-03T14:35:37;41.33;;;18.40;;
36501;SDS011;25393;46.108;3.390;2023-03-03T14:40:34;44.38;;;19.13;;
36501;SDS011;25393;46.108;3.390;2023-03-03T14:43:05;44.85;;;20.27;;
36501;SDS011;25393;46.108;3.390;2023-03-03T14:48:54;38.63;;;18.23;;
36501;SDS011;25393;46.108;3.390;2023-03-03T14:51:26;41.65;;;18.48;;
36501;SDS011;25393;46.108;3.390;2023-03-03T14:53:57;36.88;;;17.80;;
36501;SDS011;25393;46.108;3.390;2023-03-03T14:56:28;38.90;;;17.25;;
36501;SDS011;25393;46.108;3.390;2023-03-03T14:59:24;40.95;;;17.95;;
36501;SDS011;25393;46.108;3.390;2023-03-03T15:04:44;41.95;;;19.38;;
36501;SDS011;25393;46.108;3.390;2023-03-03T15:09:51;40.88;;;18.27;;
36501;SDS011;25393;46.108;3.390;2023-03-03T15:14:48;44.55;;;18.60;;
36501;SDS011;25393;46.108;3.390;2023-03-03T15:22:36;43.13;;;18.63;;
36501;SDS011;25393;46.108;3.390;2023-03-03T15:31:09;43.80;;;18.73;;
36501;SDS011;25393;46.108;3.390;2023-03-03T15:39:19;47.40;;;18.73;;
36501;SDS011;25393;46.108;3.390;2023-03-03T15:42:06;36.85;;;17.65;;
36501;SDS011;25393;46.108;3.390;2023-03-03T15:55:58;38.05;;;18.33;;
36501;SDS011;25393;46.108;3.390;2023-03-03T16:04:00;42.97;;;17.60;;
36501;SDS011;25393;46.108;3.390;2023-03-03T16:06:52;37.10;;;17.48;;
36501;SDS011;25393;46.108;3.390;2023-03-03T16:18:31;41.03;;;18.63;;
36501;SDS011;25393;46.108;3.390;2023-03-03T16:23:58;42.55;;;18.50;;
36501;SDS011;25393;46.108;3.390;2023-03-03T16:29:23;49.05;;;18.08;;
36501;SDS011;25393;46.108;3.390;2023-03-03T16:40:31;37.35;;;18.27;;
36501;SDS011;25393;46.108;3.390;2023-03-03T16:43:10;45.97;;;19.90;;
36501;SDS011;25393;46.108;3.390;2023-03-03T16:45:56;41.45;;;19.02;;
36501;SDS011;25393;46.108;3.390;2023-03-03T16:56:42;44.45;;;18.60;;
36501;SDS011;25393;46.108;3.390;2023-03-03T16:59:30;39.22;;;17.90;;
36501;SDS011;25393;46.108;3.390;2023-03-03T17:23:09;41.95;;;18.95;;
36501;SDS011;25393;46.108;3.390;2023-03-03T17:25:39;37.63;;;17.05;;
36501;SDS011;25393;46.108;3.390;2023-03-03T17:30:55;40.25;;;18.60;;
36501;SDS011;25393;46.108;3.390;2023-03-03T17:35:59;44.57;;;17.33;;
36501;SDS011;25393;46.108;3.390;2023-03-03T18:14:36;43.17;;;18.60;;
36501;SDS011;25393;46.108;3.390;2023-03-03T18:22:43;41.27;;;17.67;;
36501;SDS011;25393;46.108;3.390;2023-03-03T18:25:20;42.90;;;18.47;;
36501;SDS011;25393;46.108;3.390;2023-03-03T18:33:01;47.13;;;18.70;;
36501;SDS011;25393;46.108;3.390;2023-03-03T18:40:58;45.47;;;18.00;;
36501;SDS011;25393;46.108;3.390;2023-03-03T18:48:49;45.43;;;19.57;;
36501;SDS011;25393;46.108;3.390;2023-03-03T18:56:44;47.60;;;19.67;;
36501;SDS011;25393;46.108;3.390;2023-03-03T19:07:29;52.57;;;18.77;;
36501;SDS011;25393;46.108;3.390;2023-03-03T19:12:58;42.83;;;17.97;;
36501;SDS011;25393;46.108;3.390;2023-03-03T19:18:03;47.13;;;19.40;;
36501;SDS011;25393;46.108;3.390;2023-03-03T19:23:53;48.27;;;20.73;;
36501;SDS011;25393;46.108;3.390;2023-03-03T19:34:36;42.20;;;18.80;;
36501;SDS011;25393;46.108;3.390;2023-03-03T19:45:39;52.60;;;20.67;;
36501;SDS011;25393;46.108;3.390;2023-03-03T20:05:49;53.80;;;19.90;;
36501;SDS011;25393;46.108;3.390;2023-03-03T20:13:34;50.40;;;19.67;;
36501;SDS011;25393;46.108;3.390;2023-03-03T20:16:24;51.03;;;19.90;;
36501;SDS011;25393;46.108;3.390;2023-03-03T20:19:13;47.67;;;20.73;;
36501;SDS011;25393;46.108;3.390;2023-03-03T20:22:30;45.57;;;20.23;;
36501;SDS011;25393;46.108;3.390;2023-03-03T20:24:52;48.20;;;19.87;;
36501;SDS011;25393;46.108;3.390;2023-03-03T20:27:48;53.10;;;19.37;;
36501;SDS011;25393;46.108;3.390;2023-03-03T20:47:16;46.17;;;20.10;;
36501;SDS011;25393;46.108;3.390;2023-03-03T20:58:08;47.40;;;20.47;;
36501;SDS011;25393;46.108;3.390;2023-03-03T21:00:51;52.13;;;21.57;;
36501;SDS011;25393;46.108;3.390;2023-03-03T21:03:31;51.00;;;20.57;;
36501;SDS011;25393;46.108;3.390;2023-03-03T21:06:19;50.43;;;21.53;;
36501;SDS011;25393;46.108;3.390;2023-03-03T21:08:53;48.00;;;21.17;;
36501;SDS011;25393;46.108;3.390;2023-03-03T21:11:23;53.20;;;21.13;;
36501;SDS011;25393;46.108;3.390;2023-03-03T21:13:55;50.67;;;20.27;;
36501;SDS011;25393;46.108;3.390;2023-03-03T21:19:00;48.67;;;21.20;;
36501;SDS011;25393;46.108;3.390;2023-03-03T21:21:41;53.57;;;21.73;;
36501;SDS011;25393;46.108;3.390;2023-03-03T21:24:14;53.17;;;21.07;;
36501;SDS011;25393;46.108;3.390;2023-03-03T21:27:21;46.60;;;21.17;;
36501;SDS011;25393;46.108;3.390;2023-03-03T21:30:05;47.97;;;20.57;;
36501;SDS011;25393;46.108;3.390;2023-03-03T21:32:49;53.13;;;20.87;;
36501;SDS011;25393;46.108;3.390;2023-03-03T21:35:19;49.67;;;23.40;;
36501;SDS011;25393;46.108;3.390;2023-03-03T21:37:48;51.73;;;22.03;;
36501;SDS011;25393;46.108;3.390;2023-03-03T21:42:56;48.93;;;21.90;;
36501;SDS011;25393;46.108;3.390;2023-03-03T21:45:25;48.47;;;22.00;;
36501;SDS011;25393;46.108;3.390;2023-03-03T21:48:10;52.23;;;20.43;;
36501;SDS011;25393;46.108;3.390;2023-03-03T21:50:39;51.30;;;20.90;;
36501;SDS011;25393;46.108;3.390;2023-03-03T21:53:07;57.97;;;22.37;;
36501;SDS011;25393;46.108;3.390;2023-03-03T21:55:34;51.43;;;22.03;;
36501;SDS011;25393;46.108;3.390;2023-03-03T21:58:00;52.37;;;21.87;;
36501;SDS011;25393;46.108;3.390;2023-03-03T22:00:27;47.80;;;20.73;;
36501;SDS011;25393;46.108;3.390;2023-03-03T22:02:55;61.90;;;22.33;;
36501;SDS011;25393;46.108;3.390;2023-03-03T22:05:22;48.90;;;22.27;;
36501;SDS011;25393;46.108;3.390;2023-03-03T22:07:49;55.43;;;21.47;;
36501;SDS011;25393;46.108;3.390;2023-03-03T22:10:19;55.27;;;23.33;;
36501;SDS011;25393;46.108;3.390;2023-03-03T22:12:45;48.70;;;21.77;;
36501;SDS011;25393;46.108;3.390;2023-03-03T22:15:12;46.90;;;21.83;;
36501;SDS011;25393;46.108;3.390;2023-03-03T22:17:39;53.33;;;21.27;;
36501;SDS011;25393;46.108;3.390;2023-03-03T22:20:06;49.67;;;20.40;;
36501;SDS011;25393;46.108;3.390;2023-03-03T22:22:33;52.23;;;22.27;;
36501;SDS011;25393;46.108;3.390;2023-03-03T22:25:00;51.43;;;22.27;;
36501;SDS011;25393;46.108;3.390;2023-03-03T22:27:27;51.00;;;21.83;;
36501;SDS011;25393;46.108;3.390;2023-03-03T22:29:54;54.73;;;21.53;;
36501;SDS011;25393;46.108;3.390;2023-03-03T22:32:20;50.67;;;20.50;;
36501;SDS011;25393;46.108;3.390;2023-03-03T22:34:47;51.23;;;22.07;;
36501;SDS011;25393;46.108;3.390;2023-03-03T22:37:16;49.57;;;22.80;;
36501;SDS011;25393;46.108;3.390;2023-03-03T22:39:43;54.67;;;21.90;;
36501;SDS011;25393;46.108;3.390;2023-03-03T22:42:09;53.23;;;23.33;;